Aérodrome :
LOGIN :

S'inscrire | Disclaimer

   EN    FR    IT 

 










Légende :    VFR   VFR Marginal   IFR   IFR Intensif   IFR Très Intensif
Visi : 
Plafond : 
>= 8 km
>= 3000ft
5 à 8 km
1000 à 3000 ft
1500m à 5 km
500 à 1000 ft
800 à 1500m
200 à 500 ft
< 800m
< 200 ft
Symboles :   Orages  Brouillard  Fortes neiges  Fortes précipitations  Vent > 20 kt
SIGMETs :   Divers  Orages  Givrage  Turbulence  Onde Orograph.  Cendres Volcan.






- Altitude de l'aérodrome : 308 ft
- Code IATA : POZ


EPPO - Poznan-Lawica

DERNIER METAR :
  • 300530Z 30005KT CAVOK M03/M08 Q1025

METARs EXPIRÉS :
  • 300500Z 31004KT CAVOK M04/M08 Q1025
  • 300430Z 30008KT CAVOK M05/M08 Q1025
  • 300400Z 30007KT CAVOK M05/M08 Q1025
  • 300330Z 30007KT CAVOK M04/M07 Q1026
  • 300300Z 31006KT CAVOK M04/M07 Q1026

TAF TAF EPPO
Valide du 30 à 06h jusqu'au 31 à 06h UTC


300530Z 3006/3106 30010KT 9999 SCT045
TEMPO 3010/3018 30015G25KT SCT035CB
TEMPO 3018/3103 30015G25KT 3000 SHSN BKN007 BKN014CB
PROB40
TEMPO 3020/3103 1200 SHSN BKN002 BKN008CB



MET'MAP, la Météo Aéronautique d'un coup d'oeil ! - Copyright ORBIFLY Décembre 2007 - Disclaimer

ORBIFLY MET'MAP TEAM :

Programmation & Développement : Alexandra Zaïnal
Sur une idée originale de : Baudouin d'Aumeries
Assistance à la programmation : Marc-Olivier Méhu
Soutien technique & logistique : Manuel Goepfert

Contact : metmap@orbifly.com




SOURCES & CREDITS :

   NOAA